sensor_id;sensor_type;location;lat;lon;timestamp;temperature;humidity
72650;SHT31;61467;50.674;4.618;2023-06-14T00:00:16;22.86;39.89
72650;SHT31;61467;50.674;4.618;2023-06-14T00:02:43;22.87;39.73
72650;SHT31;61467;50.674;4.618;2023-06-14T00:05:11;22.86;40.02
72650;SHT31;61467;50.674;4.618;2023-06-14T00:07:40;22.76;40.04
72650;SHT31;61467;50.674;4.618;2023-06-14T00:10:08;22.71;39.61
72650;SHT31;61467;50.674;4.618;2023-06-14T00:12:36;22.70;39.44
72650;SHT31;61467;50.674;4.618;2023-06-14T00:15:04;22.60;39.72
72650;SHT31;61467;50.674;4.618;2023-06-14T00:17:31;22.56;39.90
72650;SHT31;61467;50.674;4.618;2023-06-14T00:19:57;22.55;40.21
72650;SHT31;61467;50.674;4.618;2023-06-14T00:22:26;22.61;40.39
72650;SHT31;61467;50.674;4.618;2023-06-14T00:24:54;22.61;40.87
72650;SHT31;61467;50.674;4.618;2023-06-14T00:27:21;22.49;40.54
72650;SHT31;61467;50.674;4.618;2023-06-14T00:29:47;22.49;40.41
72650;SHT31;61467;50.674;4.618;2023-06-14T00:32:18;22.49;40.13
72650;SHT31;61467;50.674;4.618;2023-06-14T00:34:45;22.46;40.32
72650;SHT31;61467;50.674;4.618;2023-06-14T00:37:11;22.49;40.15
72650;SHT31;61467;50.674;4.618;2023-06-14T00:39:40;22.39;40.62
72650;SHT31;61467;50.674;4.618;2023-06-14T00:42:07;22.38;41.07
72650;SHT31;61467;50.674;4.618;2023-06-14T00:44:33;22.38;40.70
72650;SHT31;61467;50.674;4.618;2023-06-14T00:47:00;22.30;40.65
72650;SHT31;61467;50.674;4.618;2023-06-14T00:49:29;22.29;40.61
72650;SHT31;61467;50.674;4.618;2023-06-14T00:51:56;22.22;40.75
72650;SHT31;61467;50.674;4.618;2023-06-14T00:54:22;22.20;40.81
72650;SHT31;61467;50.674;4.618;2023-06-14T00:56:51;22.19;40.77
72650;SHT31;61467;50.674;4.618;2023-06-14T00:59:17;22.18;40.60
72650;SHT31;61467;50.674;4.618;2023-06-14T01:01:44;22.11;40.66
72650;SHT31;61467;50.674;4.618;2023-06-14T01:04:11;22.05;40.74
72650;SHT31;61467;50.674;4.618;2023-06-14T01:06:46;22.05;40.92
72650;SHT31;61467;50.674;4.618;2023-06-14T01:09:23;21.99;41.34
72650;SHT31;61467;50.674;4.618;2023-06-14T01:12:03;22.05;40.90
72650;SHT31;61467;50.674;4.618;2023-06-14T01:14:33;22.01;41.01
72650;SHT31;61467;50.674;4.618;2023-06-14T01:17:02;22.04;40.94
72650;SHT31;61467;50.674;4.618;2023-06-14T01:19:28;22.01;40.92
72650;SHT31;61467;50.674;4.618;2023-06-14T01:21:57;21.88;41.14
72650;SHT31;61467;50.674;4.618;2023-06-14T01:24:27;21.91;41.38
72650;SHT31;61467;50.674;4.618;2023-06-14T01:26:57;21.94;41.33
72650;SHT31;61467;50.674;4.618;2023-06-14T01:29:26;22.04;41.09
72650;SHT31;61467;50.674;4.618;2023-06-14T01:31:58;22.01;41.11
72650;SHT31;61467;50.674;4.618;2023-06-14T01:34:25;21.94;41.17
72650;SHT31;61467;50.674;4.618;2023-06-14T01:36:53;21.92;41.25
72650;SHT31;61467;50.674;4.618;2023-06-14T01:39:21;21.92;41.25
72650;SHT31;61467;50.674;4.618;2023-06-14T01:41:51;21.85;41.40
72650;SHT31;61467;50.674;4.618;2023-06-14T01:44:19;21.85;41.69
72650;SHT31;61467;50.674;4.618;2023-06-14T01:46:47;21.80;41.61
72650;SHT31;61467;50.674;4.618;2023-06-14T01:49:14;21.73;41.81
72650;SHT31;61467;50.674;4.618;2023-06-14T01:51:41;21.62;42.03
72650;SHT31;61467;50.674;4.618;2023-06-14T01:54:08;21.53;42.22
72650;SHT31;61467;50.674;4.618;2023-06-14T01:56:35;21.50;42.30
72650;SHT31;61467;50.674;4.618;2023-06-14T01:59:03;21.44;42.75
72650;SHT31;61467;50.674;4.618;2023-06-14T02:01:30;21.33;42.82
72650;SHT31;61467;50.674;4.618;2023-06-14T02:03:59;21.31;42.96
72650;SHT31;61467;50.674;4.618;2023-06-14T02:06:27;21.30;42.94
72650;SHT31;61467;50.674;4.618;2023-06-14T02:08:54;21.27;43.00
72650;SHT31;61467;50.674;4.618;2023-06-14T02:11:20;21.19;43.08
72650;SHT31;61467;50.674;4.618;2023-06-14T02:13:47;21.19;43.02
72650;SHT31;61467;50.674;4.618;2023-06-14T02:16:16;21.10;43.20
72650;SHT31;61467;50.674;4.618;2023-06-14T02:18:43;21.13;43.28
72650;SHT31;61467;50.674;4.618;2023-06-14T02:21:10;20.92;43.57
72650;SHT31;61467;50.674;4.618;2023-06-14T02:23:36;20.99;43.46
72650;SHT31;61467;50.674;4.618;2023-06-14T02:26:03;21.00;43.42
72650;SHT31;61467;50.674;4.618;2023-06-14T02:28:30;21.00;43.51
72650;SHT31;61467;50.674;4.618;2023-06-14T02:30:57;21.06;43.31
72650;SHT31;61467;50.674;4.618;2023-06-14T02:33:25;21.09;43.29
72650;SHT31;61467;50.674;4.618;2023-06-14T02:35:53;21.10;43.51
72650;SHT31;61467;50.674;4.618;2023-06-14T02:38:19;21.00;43.57
72650;SHT31;61467;50.674;4.618;2023-06-14T02:40:46;21.03;43.66
72650;SHT31;61467;50.674;4.618;2023-06-14T02:43:13;20.96;43.76
72650;SHT31;61467;50.674;4.618;2023-06-14T02:45:40;20.93;43.85
72650;SHT31;61467;50.674;4.618;2023-06-14T02:48:07;20.90;43.72
72650;SHT31;61467;50.674;4.618;2023-06-14T02:50:35;20.96;43.72
72650;SHT31;61467;50.674;4.618;2023-06-14T02:53:02;20.92;43.86
72650;SHT31;61467;50.674;4.618;2023-06-14T02:55:29;20.71;44.31
72650;SHT31;61467;50.674;4.618;2023-06-14T02:57:56;20.78;44.32
72650;SHT31;61467;50.674;4.618;2023-06-14T03:00:23;20.79;44.55
72650;SHT31;61467;50.674;4.618;2023-06-14T03:02:50;20.73;44.50
72650;SHT31;61467;50.674;4.618;2023-06-14T03:05:17;20.67;44.56
72650;SHT31;61467;50.674;4.618;2023-06-14T03:07:48;20.56;44.87
72650;SHT31;61467;50.674;4.618;2023-06-14T03:10:15;20.53;44.92
72650;SHT31;61467;50.674;4.618;2023-06-14T03:12:42;20.55;44.92
72650;SHT31;61467;50.674;4.618;2023-06-14T03:15:10;20.42;45.14
72650;SHT31;61467;50.674;4.618;2023-06-14T03:17:38;20.44;45.14
72650;SHT31;61467;50.674;4.618;2023-06-14T03:20:07;20.38;45.53
72650;SHT31;61467;50.674;4.618;2023-06-14T03:22:34;20.18;45.88
72650;SHT31;61467;50.674;4.618;2023-06-14T03:25:03;20.34;45.66
72650;SHT31;61467;50.674;4.618;2023-06-14T03:27:30;20.48;45.30
72650;SHT31;61467;50.674;4.618;2023-06-14T03:29:57;20.44;45.47
72650;SHT31;61467;50.674;4.618;2023-06-14T03:32:24;20.40;45.81
72650;SHT31;61467;50.674;4.618;2023-06-14T03:34:51;20.28;45.90
72650;SHT31;61467;50.674;4.618;2023-06-14T03:37:18;20.30;46.05
72650;SHT31;61467;50.674;4.618;2023-06-14T03:39:44;20.27;45.97
72650;SHT31;61467;50.674;4.618;2023-06-14T03:42:14;20.27;46.10
72650;SHT31;61467;50.674;4.618;2023-06-14T03:44:42;20.20;46.38
72650;SHT31;61467;50.674;4.618;2023-06-14T03:47:09;20.10;46.85
72650;SHT31;61467;50.674;4.618;2023-06-14T03:49:35;20.03;46.98
72650;SHT31;61467;50.674;4.618;2023-06-14T03:52:03;19.98;47.23
72650;SHT31;61467;50.674;4.618;2023-06-14T03:54:30;19.97;47.08
72650;SHT31;61467;50.674;4.618;2023-06-14T03:56:58;19.84;47.35
72650;SHT31;61467;50.674;4.618;2023-06-14T03:59:26;19.90;47.61
72650;SHT31;61467;50.674;4.618;2023-06-14T04:01:54;20.00;47.48
72650;SHT31;61467;50.674;4.618;2023-06-14T04:04:21;20.09;46.84
72650;SHT31;61467;50.674;4.618;2023-06-14T04:06:54;20.06;46.99
72650;SHT31;61467;50.674;4.618;2023-06-14T04:09:23;20.07;47.18
72650;SHT31;61467;50.674;4.618;2023-06-14T04:11:51;20.07;47.12
72650;SHT31;61467;50.674;4.618;2023-06-14T04:14:18;20.24;46.70
72650;SHT31;61467;50.674;4.618;2023-06-14T04:16:47;20.30;46.42
72650;SHT31;61467;50.674;4.618;2023-06-14T04:19:14;20.18;46.61
72650;SHT31;61467;50.674;4.618;2023-06-14T04:21:41;20.14;46.88
72650;SHT31;61467;50.674;4.618;2023-06-14T04:24:08;20.24;46.66
72650;SHT31;61467;50.674;4.618;2023-06-14T04:26:38;20.31;46.60
72650;SHT31;61467;50.674;4.618;2023-06-14T04:29:05;20.38;46.45
72650;SHT31;61467;50.674;4.618;2023-06-14T04:31:32;20.38;46.39
72650;SHT31;61467;50.674;4.618;2023-06-14T04:34:01;20.30;46.55
72650;SHT31;61467;50.674;4.618;2023-06-14T04:36:31;20.40;46.47
72650;SHT31;61467;50.674;4.618;2023-06-14T04:39:00;20.35;46.58
72650;SHT31;61467;50.674;4.618;2023-06-14T04:41:28;20.59;46.01
72650;SHT31;61467;50.674;4.618;2023-06-14T04:43:56;20.73;46.10
72650;SHT31;61467;50.674;4.618;2023-06-14T04:46:26;20.76;45.69
72650;SHT31;61467;50.674;4.618;2023-06-14T04:48:54;20.89;45.54
72650;SHT31;61467;50.674;4.618;2023-06-14T04:51:23;20.76;45.60
72650;SHT31;61467;50.674;4.618;2023-06-14T04:53:55;20.59;46.17
72650;SHT31;61467;50.674;4.618;2023-06-14T04:56:22;20.53;46.49
72650;SHT31;61467;50.674;4.618;2023-06-14T04:58:50;20.53;46.57
72650;SHT31;61467;50.674;4.618;2023-06-14T05:01:18;20.55;46.38
72650;SHT31;61467;50.674;4.618;2023-06-14T05:03:45;20.49;46.73
72650;SHT31;61467;50.674;4.618;2023-06-14T05:06:14;20.75;46.53
72650;SHT31;61467;50.674;4.618;2023-06-14T05:08:42;20.92;46.07
72650;SHT31;61467;50.674;4.618;2023-06-14T05:11:09;21.03;45.79
72650;SHT31;61467;50.674;4.618;2023-06-14T05:13:35;21.02;45.83
72650;SHT31;61467;50.674;4.618;2023-06-14T05:16:02;21.13;45.86
72650;SHT31;61467;50.674;4.618;2023-06-14T05:18:29;21.19;45.64
72650;SHT31;61467;50.674;4.618;2023-06-14T05:20:56;21.33;45.62
72650;SHT31;61467;50.674;4.618;2023-06-14T05:23:23;21.27;45.74
72650;SHT31;61467;50.674;4.618;2023-06-14T05:25:51;21.29;45.43
72650;SHT31;61467;50.674;4.618;2023-06-14T05:28:18;21.31;45.39
72650;SHT31;61467;50.674;4.618;2023-06-14T05:30:46;21.40;45.77
72650;SHT31;61467;50.674;4.618;2023-06-14T05:33:13;21.53;45.25
72650;SHT31;61467;50.674;4.618;2023-06-14T05:35:40;21.67;45.12
72650;SHT31;61467;50.674;4.618;2023-06-14T05:38:07;21.75;45.20
72650;SHT31;61467;50.674;4.618;2023-06-14T05:40:34;21.65;45.33
72650;SHT31;61467;50.674;4.618;2023-06-14T05:43:02;21.90;45.20
72650;SHT31;61467;50.674;4.618;2023-06-14T05:45:29;21.97;45.17
72650;SHT31;61467;50.674;4.618;2023-06-14T05:47:56;22.15;44.77
72650;SHT31;61467;50.674;4.618;2023-06-14T05:50:23;22.26;44.69
72650;SHT31;61467;50.674;4.618;2023-06-14T05:52:50;22.40;44.43
72650;SHT31;61467;50.674;4.618;2023-06-14T05:55:17;22.28;44.66
72650;SHT31;61467;50.674;4.618;2023-06-14T05:57:43;22.42;44.20
72650;SHT31;61467;50.674;4.618;2023-06-14T06:00:13;22.45;43.88
72650;SHT31;61467;50.674;4.618;2023-06-14T06:02:41;22.50;43.73
72650;SHT31;61467;50.674;4.618;2023-06-14T06:05:09;22.60;43.60
72650;SHT31;61467;50.674;4.618;2023-06-14T06:07:36;22.60;44.17
72650;SHT31;61467;50.674;4.618;2023-06-14T06:10:03;22.63;44.18
72650;SHT31;61467;50.674;4.618;2023-06-14T06:12:31;22.86;44.02
72650;SHT31;61467;50.674;4.618;2023-06-14T06:14:58;22.93;43.59
72650;SHT31;61467;50.674;4.618;2023-06-14T06:17:26;22.91;43.85
72650;SHT31;61467;50.674;4.618;2023-06-14T06:19:53;22.96;43.48
72650;SHT31;61467;50.674;4.618;2023-06-14T06:22:20;23.03;43.43
72650;SHT31;61467;50.674;4.618;2023-06-14T06:24:47;23.03;43.48
72650;SHT31;61467;50.674;4.618;2023-06-14T06:27:14;23.06;43.77
72650;SHT31;61467;50.674;4.618;2023-06-14T06:29:42;23.15;43.10
72650;SHT31;61467;50.674;4.618;2023-06-14T06:32:09;23.35;43.11
72650;SHT31;61467;50.674;4.618;2023-06-14T06:34:37;23.58;42.79
72650;SHT31;61467;50.674;4.618;2023-06-14T06:37:04;23.61;42.69
72650;SHT31;61467;50.674;4.618;2023-06-14T06:39:31;23.57;42.83
72650;SHT31;61467;50.674;4.618;2023-06-14T06:41:58;23.49;42.79
72650;SHT31;61467;50.674;4.618;2023-06-14T06:44:25;23.34;43.13
72650;SHT31;61467;50.674;4.618;2023-06-14T06:46:52;23.52;42.55
72650;SHT31;61467;50.674;4.618;2023-06-14T06:49:18;23.70;42.39
72650;SHT31;61467;50.674;4.618;2023-06-14T06:52:00;23.58;42.34
72650;SHT31;61467;50.674;4.618;2023-06-14T06:54:28;23.62;42.39
72650;SHT31;61467;50.674;4.618;2023-06-14T06:56:55;23.39;43.58
72650;SHT31;61467;50.674;4.618;2023-06-14T06:59:22;23.66;43.12
72650;SHT31;61467;50.674;4.618;2023-06-14T07:01:49;23.83;42.90
72650;SHT31;61467;50.674;4.618;2023-06-14T07:04:16;24.03;42.31
72650;SHT31;61467;50.674;4.618;2023-06-14T07:06:43;24.14;41.81
72650;SHT31;61467;50.674;4.618;2023-06-14T07:09:12;24.24;41.85
72650;SHT31;61467;50.674;4.618;2023-06-14T07:11:40;24.30;41.55
72650;SHT31;61467;50.674;4.618;2023-06-14T07:14:07;24.29;41.50
72650;SHT31;61467;50.674;4.618;2023-06-14T07:16:34;24.41;41.19
72650;SHT31;61467;50.674;4.618;2023-06-14T07:19:02;24.37;41.54
72650;SHT31;61467;50.674;4.618;2023-06-14T07:21:28;24.44;41.15
72650;SHT31;61467;50.674;4.618;2023-06-14T07:23:56;24.43;41.48
72650;SHT31;61467;50.674;4.618;2023-06-14T07:26:24;24.48;40.78
72650;SHT31;61467;50.674;4.618;2023-06-14T07:28:51;24.54;40.95
72650;SHT31;61467;50.674;4.618;2023-06-14T07:31:18;24.40;40.40
72650;SHT31;61467;50.674;4.618;2023-06-14T07:33:45;24.26;41.72
72650;SHT31;61467;50.674;4.618;2023-06-14T07:36:12;24.57;40.90
72650;SHT31;61467;50.674;4.618;2023-06-14T07:38:39;24.79;40.68
72650;SHT31;61467;50.674;4.618;2023-06-14T07:41:06;24.91;40.27
72650;SHT31;61467;50.674;4.618;2023-06-14T07:43:34;25.01;40.25
72650;SHT31;61467;50.674;4.618;2023-06-14T07:46:01;25.11;40.05
72650;SHT31;61467;50.674;4.618;2023-06-14T07:48:28;25.11;40.08
72650;SHT31;61467;50.674;4.618;2023-06-14T07:50:55;25.15;39.74
72650;SHT31;61467;50.674;4.618;2023-06-14T07:53:22;25.12;39.64
72650;SHT31;61467;50.674;4.618;2023-06-14T07:55:49;25.32;39.75
72650;SHT31;61467;50.674;4.618;2023-06-14T07:58:16;25.37;39.87
72650;SHT31;61467;50.674;4.618;2023-06-14T08:00:44;25.43;39.97
72650;SHT31;61467;50.674;4.618;2023-06-14T08:03:11;25.45;39.47
72650;SHT31;61467;50.674;4.618;2023-06-14T08:05:38;25.63;39.22
72650;SHT31;61467;50.674;4.618;2023-06-14T08:08:05;25.70;38.65
72650;SHT31;61467;50.674;4.618;2023-06-14T08:10:31;25.81;38.37
72650;SHT31;61467;50.674;4.618;2023-06-14T08:12:58;25.77;38.31
72650;SHT31;61467;50.674;4.618;2023-06-14T08:15:25;25.63;38.19
72650;SHT31;61467;50.674;4.618;2023-06-14T08:17:53;25.71;38.79
72650;SHT31;61467;50.674;4.618;2023-06-14T08:20:20;25.96;37.78
72650;SHT31;61467;50.674;4.618;2023-06-14T08:22:47;25.93;37.22
72650;SHT31;61467;50.674;4.618;2023-06-14T08:25:14;25.96;37.12
72650;SHT31;61467;50.674;4.618;2023-06-14T08:27:40;25.98;36.97
72650;SHT31;61467;50.674;4.618;2023-06-14T08:30:08;26.09;37.35
72650;SHT31;61467;50.674;4.618;2023-06-14T08:32:35;26.08;36.05
72650;SHT31;61467;50.674;4.618;2023-06-14T08:35:04;26.14;36.61
72650;SHT31;61467;50.674;4.618;2023-06-14T08:37:31;26.13;36.52
72650;SHT31;61467;50.674;4.618;2023-06-14T08:39:58;26.34;36.67
72650;SHT31;61467;50.674;4.618;2023-06-14T08:42:25;26.35;36.92
72650;SHT31;61467;50.674;4.618;2023-06-14T08:44:52;26.38;36.84
72650;SHT31;61467;50.674;4.618;2023-06-14T08:47:19;26.18;37.11
72650;SHT31;61467;50.674;4.618;2023-06-14T08:49:47;26.39;36.95
72650;SHT31;61467;50.674;4.618;2023-06-14T08:52:19;25.97;38.13
72650;SHT31;61467;50.674;4.618;2023-06-14T08:54:48;26.17;37.49
72650;SHT31;61467;50.674;4.618;2023-06-14T08:57:16;25.96;38.13
72650;SHT31;61467;50.674;4.618;2023-06-14T08:59:46;26.27;38.19
72650;SHT31;61467;50.674;4.618;2023-06-14T09:02:17;26.18;37.98
72650;SHT31;61467;50.674;4.618;2023-06-14T09:04:45;25.96;37.26
72650;SHT31;61467;50.674;4.618;2023-06-14T09:07:12;25.80;38.74
72650;SHT31;61467;50.674;4.618;2023-06-14T09:09:41;25.88;39.36
72650;SHT31;61467;50.674;4.618;2023-06-14T09:12:10;26.09;38.95
72650;SHT31;61467;50.674;4.618;2023-06-14T09:14:38;26.22;38.69
72650;SHT31;61467;50.674;4.618;2023-06-14T09:17:07;26.24;38.57
72650;SHT31;61467;50.674;4.618;2023-06-14T09:19:34;26.24;38.67
72650;SHT31;61467;50.674;4.618;2023-06-14T09:22:03;26.11;38.67
72650;SHT31;61467;50.674;4.618;2023-06-14T09:24:30;26.17;38.73
72650;SHT31;61467;50.674;4.618;2023-06-14T09:26:58;26.08;40.08
72650;SHT31;61467;50.674;4.618;2023-06-14T09:29:25;26.37;38.78
72650;SHT31;61467;50.674;4.618;2023-06-14T09:31:53;26.45;38.71
72650;SHT31;61467;50.674;4.618;2023-06-14T09:34:20;26.20;38.34
72650;SHT31;61467;50.674;4.618;2023-06-14T09:36:49;25.93;38.62
72650;SHT31;61467;50.674;4.618;2023-06-14T09:39:17;26.13;38.48
72650;SHT31;61467;50.674;4.618;2023-06-14T09:41:44;26.35;37.86
72650;SHT31;61467;50.674;4.618;2023-06-14T09:44:13;26.49;37.19
72650;SHT31;61467;50.674;4.618;2023-06-14T09:46:40;26.37;37.28
72650;SHT31;61467;50.674;4.618;2023-06-14T09:49:08;26.32;37.30
72650;SHT31;61467;50.674;4.618;2023-06-14T09:51:42;26.34;37.22
72650;SHT31;61467;50.674;4.618;2023-06-14T09:54:14;26.39;36.97
72650;SHT31;61467;50.674;4.618;2023-06-14T09:56:44;26.41;36.84
72650;SHT31;61467;50.674;4.618;2023-06-14T09:59:13;26.35;37.02
72650;SHT31;61467;50.674;4.618;2023-06-14T10:01:42;26.39;37.12
72650;SHT31;61467;50.674;4.618;2023-06-14T10:04:10;26.62;36.38
72650;SHT31;61467;50.674;4.618;2023-06-14T10:06:38;26.65;36.01
72650;SHT31;61467;50.674;4.618;2023-06-14T10:09:08;26.78;36.23
72650;SHT31;61467;50.674;4.618;2023-06-14T10:11:36;26.69;34.99
72650;SHT31;61467;50.674;4.618;2023-06-14T10:14:05;26.71;35.18
72650;SHT31;61467;50.674;4.618;2023-06-14T10:16:38;26.53;34.86
72650;SHT31;61467;50.674;4.618;2023-06-14T10:19:11;26.58;34.07
72650;SHT31;61467;50.674;4.618;2023-06-14T10:21:46;26.52;34.59
72650;SHT31;61467;50.674;4.618;2023-06-14T10:24:19;26.39;34.58
72650;SHT31;61467;50.674;4.618;2023-06-14T10:26:54;26.42;33.89
72650;SHT31;61467;50.674;4.618;2023-06-14T10:29:21;26.44;34.52
72650;SHT31;61467;50.674;4.618;2023-06-14T10:31:50;26.58;34.69
72650;SHT31;61467;50.674;4.618;2023-06-14T10:34:23;26.53;34.41
72650;SHT31;61467;50.674;4.618;2023-06-14T10:37:01;26.44;34.32
72650;SHT31;61467;50.674;4.618;2023-06-14T10:39:30;26.72;33.98
72650;SHT31;61467;50.674;4.618;2023-06-14T10:41:57;26.76;33.01
72650;SHT31;61467;50.674;4.618;2023-06-14T10:44:43;26.65;33.00
72650;SHT31;61467;50.674;4.618;2023-06-14T10:47:20;26.59;33.15
72650;SHT31;61467;50.674;4.618;2023-06-14T10:49:50;26.63;33.10
72650;SHT31;61467;50.674;4.618;2023-06-14T10:52:21;26.69;33.28
72650;SHT31;61467;50.674;4.618;2023-06-14T10:55:08;26.86;32.38
72650;SHT31;61467;50.674;4.618;2023-06-14T10:57:37;26.96;33.05
72650;SHT31;61467;50.674;4.618;2023-06-14T11:00:06;26.95;32.57
72650;SHT31;61467;50.674;4.618;2023-06-14T11:05:50;26.95;32.68
72650;SHT31;61467;50.674;4.618;2023-06-14T11:11:22;27.00;31.74
72650;SHT31;61467;50.674;4.618;2023-06-14T11:13:51;27.02;32.35
72650;SHT31;61467;50.674;4.618;2023-06-14T11:16:18;27.08;31.71
72650;SHT31;61467;50.674;4.618;2023-06-14T11:18:45;27.03;31.73
72650;SHT31;61467;50.674;4.618;2023-06-14T11:21:16;26.95;32.63
72650;SHT31;61467;50.674;4.618;2023-06-14T11:23:49;26.90;32.69
72650;SHT31;61467;50.674;4.618;2023-06-14T11:26:24;27.06;32.68
72650;SHT31;61467;50.674;4.618;2023-06-14T11:28:55;27.34;32.04
72650;SHT31;61467;50.674;4.618;2023-06-14T11:31:23;27.29;31.95
72650;SHT31;61467;50.674;4.618;2023-06-14T11:33:50;26.97;31.43
72650;SHT31;61467;50.674;4.618;2023-06-14T11:36:18;27.10;32.11
72650;SHT31;61467;50.674;4.618;2023-06-14T11:38:45;27.08;31.75
72650;SHT31;61467;50.674;4.618;2023-06-14T11:41:12;27.04;31.29
72650;SHT31;61467;50.674;4.618;2023-06-14T11:43:39;26.99;31.81
72650;SHT31;61467;50.674;4.618;2023-06-14T11:46:12;27.13;31.10
72650;SHT31;61467;50.674;4.618;2023-06-14T11:48:41;27.17;30.77
72650;SHT31;61467;50.674;4.618;2023-06-14T11:51:08;27.24;30.58
72650;SHT31;61467;50.674;4.618;2023-06-14T11:53:38;27.48;31.13
72650;SHT31;61467;50.674;4.618;2023-06-14T11:56:06;27.58;31.00
72650;SHT31;61467;50.674;4.618;2023-06-14T11:58:32;27.68;29.98
72650;SHT31;61467;50.674;4.618;2023-06-14T12:00:59;27.77;29.89
72650;SHT31;61467;50.674;4.618;2023-06-14T12:03:27;27.80;29.77
72650;SHT31;61467;50.674;4.618;2023-06-14T12:06:05;27.96;29.76
72650;SHT31;61467;50.674;4.618;2023-06-14T12:08:33;27.68;29.21
72650;SHT31;61467;50.674;4.618;2023-06-14T12:11:10;27.78;29.70
72650;SHT31;61467;50.674;4.618;2023-06-14T12:13:38;27.99;29.40
72650;SHT31;61467;50.674;4.618;2023-06-14T12:16:07;28.02;29.71
72650;SHT31;61467;50.674;4.618;2023-06-14T12:18:34;27.59;29.04
72650;SHT31;61467;50.674;4.618;2023-06-14T12:21:03;27.69;28.66
72650;SHT31;61467;50.674;4.618;2023-06-14T12:23:53;27.68;27.80
72650;SHT31;61467;50.674;4.618;2023-06-14T12:26:24;27.82;28.42
72650;SHT31;61467;50.674;4.618;2023-06-14T12:28:53;28.15;29.77
72650;SHT31;61467;50.674;4.618;2023-06-14T12:31:20;28.35;29.23
72650;SHT31;61467;50.674;4.618;2023-06-14T12:33:47;28.09;28.84
72650;SHT31;61467;50.674;4.618;2023-06-14T12:36:15;28.12;29.53
72650;SHT31;61467;50.674;4.618;2023-06-14T12:38:42;28.15;29.41
72650;SHT31;61467;50.674;4.618;2023-06-14T12:41:10;28.20;29.21
72650;SHT31;61467;50.674;4.618;2023-06-14T12:43:41;28.49;27.70
72650;SHT31;61467;50.674;4.618;2023-06-14T12:46:08;28.29;28.38
72650;SHT31;61467;50.674;4.618;2023-06-14T12:48:35;28.40;29.10
72650;SHT31;61467;50.674;4.618;2023-06-14T12:51:01;28.26;29.02
72650;SHT31;61467;50.674;4.618;2023-06-14T12:53:28;28.06;29.17
72650;SHT31;61467;50.674;4.618;2023-06-14T12:55:55;28.31;29.22
72650;SHT31;61467;50.674;4.618;2023-06-14T12:58:22;28.63;28.88
72650;SHT31;61467;50.674;4.618;2023-06-14T13:00:50;28.42;28.74
72650;SHT31;61467;50.674;4.618;2023-06-14T13:03:17;28.74;28.74
72650;SHT31;61467;50.674;4.618;2023-06-14T13:05:44;28.81;27.99
72650;SHT31;61467;50.674;4.618;2023-06-14T13:08:11;28.57;28.15
72650;SHT31;61467;50.674;4.618;2023-06-14T13:10:38;28.43;28.54
72650;SHT31;61467;50.674;4.618;2023-06-14T13:13:05;28.36;28.27
72650;SHT31;61467;50.674;4.618;2023-06-14T13:15:33;28.59;27.89
72650;SHT31;61467;50.674;4.618;2023-06-14T13:18:01;28.64;27.90
72650;SHT31;61467;50.674;4.618;2023-06-14T13:20:28;29.00;27.71
72650;SHT31;61467;50.674;4.618;2023-06-14T13:22:55;28.84;27.06
72650;SHT31;61467;50.674;4.618;2023-06-14T13:25:22;28.74;27.58
72650;SHT31;61467;50.674;4.618;2023-06-14T13:27:49;28.57;27.46
72650;SHT31;61467;50.674;4.618;2023-06-14T13:30:16;28.39;27.67
72650;SHT31;61467;50.674;4.618;2023-06-14T13:32:43;28.59;27.20
72650;SHT31;61467;50.674;4.618;2023-06-14T13:35:11;28.78;26.96
72650;SHT31;61467;50.674;4.618;2023-06-14T13:37:39;28.66;26.75
72650;SHT31;61467;50.674;4.618;2023-06-14T13:40:07;28.87;27.08
72650;SHT31;61467;50.674;4.618;2023-06-14T13:42:34;29.03;26.30
72650;SHT31;61467;50.674;4.618;2023-06-14T13:45:01;28.86;25.85
72650;SHT31;61467;50.674;4.618;2023-06-14T13:47:28;28.57;26.72
72650;SHT31;61467;50.674;4.618;2023-06-14T13:49:55;28.60;26.48
72650;SHT31;61467;50.674;4.618;2023-06-14T13:52:23;28.78;26.83
72650;SHT31;61467;50.674;4.618;2023-06-14T13:54:50;28.98;25.70
72650;SHT31;61467;50.674;4.618;2023-06-14T13:57:17;28.84;26.44
72650;SHT31;61467;50.674;4.618;2023-06-14T13:59:45;28.56;25.35
72650;SHT31;61467;50.674;4.618;2023-06-14T14:02:12;28.98;26.04
72650;SHT31;61467;50.674;4.618;2023-06-14T14:04:40;28.84;25.78
72650;SHT31;61467;50.674;4.618;2023-06-14T14:07:07;29.08;25.38
72650;SHT31;61467;50.674;4.618;2023-06-14T14:09:35;29.32;25.50
72650;SHT31;61467;50.674;4.618;2023-06-14T14:12:04;29.44;25.12
72650;SHT31;61467;50.674;4.618;2023-06-14T14:14:32;29.08;25.46
72650;SHT31;61467;50.674;4.618;2023-06-14T14:16:58;29.10;25.43
72650;SHT31;61467;50.674;4.618;2023-06-14T14:19:25;29.29;25.37
72650;SHT31;61467;50.674;4.618;2023-06-14T14:21:52;29.39;25.00
72650;SHT31;61467;50.674;4.618;2023-06-14T14:24:20;29.52;24.54
72650;SHT31;61467;50.674;4.618;2023-06-14T14:26:51;29.35;24.77
72650;SHT31;61467;50.674;4.618;2023-06-14T14:29:19;29.65;24.44
72650;SHT31;61467;50.674;4.618;2023-06-14T14:31:46;29.48;24.32
72650;SHT31;61467;50.674;4.618;2023-06-14T14:34:13;29.45;24.51
72650;SHT31;61467;50.674;4.618;2023-06-14T14:36:39;29.26;24.11
72650;SHT31;61467;50.674;4.618;2023-06-14T14:39:07;29.14;24.89
72650;SHT31;61467;50.674;4.618;2023-06-14T14:41:34;29.08;24.80
72650;SHT31;61467;50.674;4.618;2023-06-14T14:44:04;29.22;24.86
72650;SHT31;61467;50.674;4.618;2023-06-14T14:46:31;29.39;24.66
72650;SHT31;61467;50.674;4.618;2023-06-14T14:48:59;29.56;23.63
72650;SHT31;61467;50.674;4.618;2023-06-14T14:51:25;29.96;23.29
72650;SHT31;61467;50.674;4.618;2023-06-14T14:53:52;29.82;23.92
72650;SHT31;61467;50.674;4.618;2023-06-14T14:56:19;29.90;24.55
72650;SHT31;61467;50.674;4.618;2023-06-14T14:58:46;29.69;24.48
72650;SHT31;61467;50.674;4.618;2023-06-14T15:01:15;29.99;23.47
72650;SHT31;61467;50.674;4.618;2023-06-14T15:03:42;30.24;23.80
72650;SHT31;61467;50.674;4.618;2023-06-14T15:06:09;29.82;24.26
72650;SHT31;61467;50.674;4.618;2023-06-14T15:08:35;29.75;24.30
72650;SHT31;61467;50.674;4.618;2023-06-14T15:11:03;29.72;24.51
72650;SHT31;61467;50.674;4.618;2023-06-14T15:13:29;29.46;23.50
72650;SHT31;61467;50.674;4.618;2023-06-14T15:15:56;29.42;24.43
72650;SHT31;61467;50.674;4.618;2023-06-14T15:18:24;29.97;24.46
72650;SHT31;61467;50.674;4.618;2023-06-14T15:20:51;30.09;24.70
72650;SHT31;61467;50.674;4.618;2023-06-14T15:23:18;30.06;24.30
72650;SHT31;61467;50.674;4.618;2023-06-14T15:25:46;29.73;24.85
72650;SHT31;61467;50.674;4.618;2023-06-14T15:28:13;29.93;25.36
72650;SHT31;61467;50.674;4.618;2023-06-14T15:30:43;29.76;24.88
72650;SHT31;61467;50.674;4.618;2023-06-14T15:33:10;30.02;23.95
72650;SHT31;61467;50.674;4.618;2023-06-14T15:35:38;29.82;24.03
72650;SHT31;61467;50.674;4.618;2023-06-14T15:38:05;30.13;24.37
72650;SHT31;61467;50.674;4.618;2023-06-14T15:40:32;30.02;25.21